Погода Нитчеуна неделю

Северо-Апская Провинция, Малави

18 - 24 июля
  • 18июля
    Сегодня
    +12°
    +24°
    Ясно и безоблачно
    ВремяПогодаТемператураВлажностьДавлениеВетер, м/сВероятность осадков
    02:00Ясно и безоблачно+13°C59 %664 мм2.2 м/с5 %
    05:00Ясно и безоблачно+12°C60 %665 мм1.6 м/с5 %
    08:00Ясно и безоблачно+17°C48 %668 мм1.7 м/с5 %
    11:00Ясно и безоблачно+20°C41 %669 мм3.4 м/с5 %
    14:00Ясно и безоблачно+23°C34 %667 мм3.5 м/с5 %
    17:00Ясно и безоблачно+21°C43 %667 мм2.0 м/с5 %
    20:00Ясно и безоблачно+18°C57 %666 мм1.3 м/с5 %
    23:00Ясно и безоблачно+16°C55 %665 мм1.6 м/с5 %
  • 19июля
    Пятница
    +12°
    +25°
    Практически безоблачно
    ВремяПогодаТемператураВлажностьДавлениеВетер, м/сВероятность осадков
    02:00Ясно и безоблачно+13°C68 %664 мм1.8 м/с5 %
    05:00Ясно и безоблачно+13°C68 %664 мм0.4 м/с5 %
    08:00Ясно и безоблачно+18°C56 %667 мм0.6 м/с5 %
    11:00Небольшая облачность+22°C38 %667 мм2.4 м/с5 %
    14:00Практически безоблачно+25°C37 %666 мм2.5 м/с5 %
    17:00Практически безоблачно+23°C41 %666 мм1.8 м/с5 %
    20:00Небольшая облачность+20°C47 %666 мм0.4 м/с5 %
    23:00Небольшая облачность+18°C49 %665 мм0.9 м/с5 %
  • 20июля
    Суббота
    +14°
    +27°
    Практически безоблачно
    ВремяПогодаТемператураВлажностьДавлениеВетер, м/сВероятность осадков
    02:00Небольшая облачность+15°C57 %663 мм0.7 м/с5 %
    05:00Небольшая облачность+12°C69 %663 мм1.4 м/с5 %
    08:00Ясно и безоблачно+19°C53 %666 мм0.9 м/с5 %
    11:00Ясно и безоблачно+23°C37 %667 мм2.1 м/с5 %
    14:00Практически безоблачно+26°C32 %666 мм2.2 м/с5 %
    17:00Ясно и безоблачно+24°C36 %665 мм1.7 м/с5 %
    20:00Ясно и безоблачно+21°C44 %666 мм1.1 м/с5 %
    23:00Ясно и безоблачно+18°C45 %665 мм1.2 м/с5 %
  • 21июля
    Воскресенье
    +11°
    +26°
    Небольшая облачность
    ВремяПогодаТемператураВлажностьДавлениеВетер, м/сВероятность осадков
    02:00Ясно и безоблачно+16°C47 %664 мм1.7 м/с5 %
    05:00Ясно и безоблачно+16°C49 %664 мм0.5 м/с5 %
    08:00Ясно и безоблачно+18°C54 %667 мм1.3 м/с5 %
    11:00Практически безоблачно+23°C38 %667 мм2.3 м/с5 %
    14:00Небольшая облачность+26°C32 %666 мм2.6 м/с5 %
    17:00Ясно и безоблачно+23°C37 %666 мм2.3 м/с5 %
    20:00Ясно и безоблачно+19°C53 %666 мм1.8 м/с5 %
    23:00Ясно и безоблачно+15°C64 %664 мм1.8 м/с5 %
  • 22июля
    Понедельник
    +11°
    +26°
    Облачно с прояснениями
    ВремяПогодаТемператураВлажностьДавлениеВетер, м/сВероятность осадков
    02:00Небольшая облачность+13°C68 %664 мм2.1 м/с5 %
    05:00Облачно с прояснениями+12°C72 %664 мм2.1 м/с5 %
    08:00Практически безоблачно+18°C59 %667 мм2.3 м/с5 %
    11:00Небольшая облачность+22°C43 %668 мм2.5 м/с5 %
    14:00Облачно с прояснениями+25°C35 %667 мм2.5 м/с5 %
    17:00Ясно и безоблачно+24°C39 %667 мм2.4 м/с5 %
    20:00Ясно и безоблачно+18°C63 %667 мм1.8 м/с5 %
    23:00Ясно и безоблачно+14°C72 %666 мм1.7 м/с5 %
Мы используем cookies
Соглашаюсь